Terminal Aerodrome Forecast
Issued by NWS Charleston, WV

Current Version | Previous Version | Graphics & Text | Print | Product List | Glossary On
Versions: 1 2 3 4 5 6 7 8 9 10 11 12 13 14 15 16 17 18 19 20 21 22 23
069
FTUS41 KRLX 231729
TAFCRW
TAF
KCRW 231729Z 2318/2418 23010KT P6SM BKN070
     FM232000 24009KT P6SM VCTS BKN070CB
      TEMPO 2321/2324 4SM +TSRA OVC040CB
     FM240000 24007KT P6SM VCTS BKN050CB
     FM240600 VRB03KT P6SM BKN040
     FM240900 00000KT 3SM BR BKN015
     FM241300 25004KT P6SM BKN035
     FM241700 25004KT P6SM SCT080=

USA.gov is the U.S. government's official web portal to all federal, state and local government web resources and services.